sensor_id;sensor_type;location;lat;lon;timestamp;P1;durP1;ratioP1;P2;durP2;ratioP2
20042;SDS011;10182;52.896;6.496;2022-11-23T00:04:58;15.00;;;11.97;;
20042;SDS011;10182;52.896;6.496;2022-11-23T00:10:01;21.57;;;13.37;;
20042;SDS011;10182;52.896;6.496;2022-11-23T00:15:03;16.20;;;12.70;;
20042;SDS011;10182;52.896;6.496;2022-11-23T00:20:06;13.60;;;12.27;;
20042;SDS011;10182;52.896;6.496;2022-11-23T00:25:10;15.60;;;12.30;;
20042;SDS011;10182;52.896;6.496;2022-11-23T00:30:12;17.57;;;13.13;;
20042;SDS011;10182;52.896;6.496;2022-11-23T00:35:14;13.20;;;11.57;;
20042;SDS011;10182;52.896;6.496;2022-11-23T00:40:17;15.97;;;12.27;;
20042;SDS011;10182;52.896;6.496;2022-11-23T00:45:22;15.27;;;12.07;;
20042;SDS011;10182;52.896;6.496;2022-11-23T00:50:24;18.13;;;12.50;;
20042;SDS011;10182;52.896;6.496;2022-11-23T00:55:27;15.50;;;12.87;;
20042;SDS011;10182;52.896;6.496;2022-11-23T01:00:28;18.20;;;13.80;;
20042;SDS011;10182;52.896;6.496;2022-11-23T01:05:30;15.00;;;12.63;;
20042;SDS011;10182;52.896;6.496;2022-11-23T01:10:37;17.47;;;13.97;;
20042;SDS011;10182;52.896;6.496;2022-11-23T01:15:47;16.17;;;12.77;;
20042;SDS011;10182;52.896;6.496;2022-11-23T01:20:49;14.83;;;12.80;;
20042;SDS011;10182;52.896;6.496;2022-11-23T01:25:52;15.57;;;13.30;;
20042;SDS011;10182;52.896;6.496;2022-11-23T01:30:54;15.83;;;13.73;;
20042;SDS011;10182;52.896;6.496;2022-11-23T01:35:55;20.30;;;13.83;;
20042;SDS011;10182;52.896;6.496;2022-11-23T01:40:58;17.67;;;12.57;;
20042;SDS011;10182;52.896;6.496;2022-11-23T01:46:00;14.47;;;13.07;;
20042;SDS011;10182;52.896;6.496;2022-11-23T01:51:03;17.50;;;12.27;;
20042;SDS011;10182;52.896;6.496;2022-11-23T01:56:09;16.90;;;12.87;;
20042;SDS011;10182;52.896;6.496;2022-11-23T02:01:15;15.60;;;13.73;;
20042;SDS011;10182;52.896;6.496;2022-11-23T02:06:17;19.17;;;13.73;;
20042;SDS011;10182;52.896;6.496;2022-11-23T02:11:21;20.90;;;14.80;;
20042;SDS011;10182;52.896;6.496;2022-11-23T02:16:23;16.80;;;13.63;;
20042;SDS011;10182;52.896;6.496;2022-11-23T02:21:25;20.80;;;14.30;;
20042;SDS011;10182;52.896;6.496;2022-11-23T02:26:29;16.27;;;13.97;;
20042;SDS011;10182;52.896;6.496;2022-11-23T02:31:32;17.73;;;13.73;;
20042;SDS011;10182;52.896;6.496;2022-11-23T02:36:35;16.00;;;13.23;;
20042;SDS011;10182;52.896;6.496;2022-11-23T02:41:44;22.07;;;14.90;;
20042;SDS011;10182;52.896;6.496;2022-11-23T02:46:47;20.57;;;14.97;;
20042;SDS011;10182;52.896;6.496;2022-11-23T02:51:49;19.33;;;16.00;;
20042;SDS011;10182;52.896;6.496;2022-11-23T02:56:53;21.27;;;16.37;;
20042;SDS011;10182;52.896;6.496;2022-11-23T03:01:54;20.67;;;16.40;;
20042;SDS011;10182;52.896;6.496;2022-11-23T03:06:56;27.27;;;18.87;;
20042;SDS011;10182;52.896;6.496;2022-11-23T03:12:00;28.90;;;17.70;;
20042;SDS011;10182;52.896;6.496;2022-11-23T03:17:02;22.53;;;18.67;;
20042;SDS011;10182;52.896;6.496;2022-11-23T03:22:04;25.23;;;18.33;;
20042;SDS011;10182;52.896;6.496;2022-11-23T03:27:07;27.50;;;18.57;;
20042;SDS011;10182;52.896;6.496;2022-11-23T03:32:09;27.97;;;18.87;;
20042;SDS011;10182;52.896;6.496;2022-11-23T03:37:11;29.83;;;19.77;;
20042;SDS011;10182;52.896;6.496;2022-11-23T03:42:14;31.87;;;21.80;;
20042;SDS011;10182;52.896;6.496;2022-11-23T03:47:15;29.07;;;21.37;;
20042;SDS011;10182;52.896;6.496;2022-11-23T03:52:17;27.60;;;20.70;;
20042;SDS011;10182;52.896;6.496;2022-11-23T03:57:20;28.30;;;21.17;;
20042;SDS011;10182;52.896;6.496;2022-11-23T04:02:22;29.30;;;22.20;;
20042;SDS011;10182;52.896;6.496;2022-11-23T04:07:23;30.07;;;22.73;;
20042;SDS011;10182;52.896;6.496;2022-11-23T04:12:26;32.77;;;22.80;;
20042;SDS011;10182;52.896;6.496;2022-11-23T04:17:28;28.20;;;21.40;;
20042;SDS011;10182;52.896;6.496;2022-11-23T04:22:30;32.67;;;23.50;;
20042;SDS011;10182;52.896;6.496;2022-11-23T04:27:33;32.93;;;25.20;;
20042;SDS011;10182;52.896;6.496;2022-11-23T04:32:34;35.23;;;25.00;;
20042;SDS011;10182;52.896;6.496;2022-11-23T04:37:36;32.30;;;25.00;;
20042;SDS011;10182;52.896;6.496;2022-11-23T04:42:39;33.97;;;25.17;;
20042;SDS011;10182;52.896;6.496;2022-11-23T04:47:41;33.33;;;23.50;;
20042;SDS011;10182;52.896;6.496;2022-11-23T04:52:42;34.43;;;23.57;;
20042;SDS011;10182;52.896;6.496;2022-11-23T04:57:45;39.13;;;25.90;;
20042;SDS011;10182;52.896;6.496;2022-11-23T05:02:47;32.80;;;22.27;;
20042;SDS011;10182;52.896;6.496;2022-11-23T05:07:49;33.87;;;24.73;;
20042;SDS011;10182;52.896;6.496;2022-11-23T05:12:52;32.07;;;22.80;;
20042;SDS011;10182;52.896;6.496;2022-11-23T05:17:58;35.63;;;22.77;;
20042;SDS011;10182;52.896;6.496;2022-11-23T05:23:01;34.27;;;21.97;;
20042;SDS011;10182;52.896;6.496;2022-11-23T05:28:04;29.07;;;21.07;;
20042;SDS011;10182;52.896;6.496;2022-11-23T05:33:06;31.40;;;19.97;;
20042;SDS011;10182;52.896;6.496;2022-11-23T05:38:07;34.37;;;20.07;;
20042;SDS011;10182;52.896;6.496;2022-11-23T05:43:10;27.37;;;19.87;;
20042;SDS011;10182;52.896;6.496;2022-11-23T05:48:12;29.97;;;21.00;;
20042;SDS011;10182;52.896;6.496;2022-11-23T05:53:14;28.23;;;19.00;;
20042;SDS011;10182;52.896;6.496;2022-11-23T05:58:17;24.40;;;17.53;;
20042;SDS011;10182;52.896;6.496;2022-11-23T06:08:58;24.27;;;15.93;;
20042;SDS011;10182;52.896;6.496;2022-11-23T06:14:01;21.27;;;16.13;;
20042;SDS011;10182;52.896;6.496;2022-11-23T06:19:03;25.37;;;17.13;;
20042;SDS011;10182;52.896;6.496;2022-11-23T06:24:05;21.23;;;15.23;;
20042;SDS011;10182;52.896;6.496;2022-11-23T06:29:08;24.77;;;14.87;;
20042;SDS011;10182;52.896;6.496;2022-11-23T06:34:10;20.03;;;14.93;;
20042;SDS011;10182;52.896;6.496;2022-11-23T06:39:12;21.87;;;14.17;;
20042;SDS011;10182;52.896;6.496;2022-11-23T06:44:15;24.40;;;13.90;;
20042;SDS011;10182;52.896;6.496;2022-11-23T06:49:16;19.97;;;14.47;;
20042;SDS011;10182;52.896;6.496;2022-11-23T06:54:20;21.13;;;13.23;;
20042;SDS011;10182;52.896;6.496;2022-11-23T06:59:23;19.10;;;11.37;;
20042;SDS011;10182;52.896;6.496;2022-11-23T07:04:25;18.37;;;11.40;;
20042;SDS011;10182;52.896;6.496;2022-11-23T07:09:27;21.13;;;11.63;;
20042;SDS011;10182;52.896;6.496;2022-11-23T07:14:30;18.40;;;10.10;;
20042;SDS011;10182;52.896;6.496;2022-11-23T07:19:31;16.50;;;9.00;;
20042;SDS011;10182;52.896;6.496;2022-11-23T07:24:33;16.83;;;9.70;;
20042;SDS011;10182;52.896;6.496;2022-11-23T07:29:36;17.13;;;9.97;;
20042;SDS011;10182;52.896;6.496;2022-11-23T07:34:38;20.17;;;9.27;;
20042;SDS011;10182;52.896;6.496;2022-11-23T07:39:39;23.17;;;9.87;;
20042;SDS011;10182;52.896;6.496;2022-11-23T07:44:43;16.07;;;8.80;;
20042;SDS011;10182;52.896;6.496;2022-11-23T07:49:45;24.07;;;9.90;;
20042;SDS011;10182;52.896;6.496;2022-11-23T07:54:46;18.37;;;8.20;;
20042;SDS011;10182;52.896;6.496;2022-11-23T07:59:49;20.20;;;9.57;;
20042;SDS011;10182;52.896;6.496;2022-11-23T08:04:51;17.80;;;9.10;;
20042;SDS011;10182;52.896;6.496;2022-11-23T08:09:53;16.23;;;8.40;;
20042;SDS011;10182;52.896;6.496;2022-11-23T08:14:57;16.20;;;7.93;;
20042;SDS011;10182;52.896;6.496;2022-11-23T08:19:59;16.27;;;8.60;;
20042;SDS011;10182;52.896;6.496;2022-11-23T08:25:00;18.10;;;9.07;;
20042;SDS011;10182;52.896;6.496;2022-11-23T08:30:04;20.37;;;8.57;;
20042;SDS011;10182;52.896;6.496;2022-11-23T08:35:07;19.20;;;9.00;;
20042;SDS011;10182;52.896;6.496;2022-11-23T08:40:09;17.40;;;8.47;;
20042;SDS011;10182;52.896;6.496;2022-11-23T08:45:13;20.27;;;8.70;;
20042;SDS011;10182;52.896;6.496;2022-11-23T08:50:14;15.33;;;7.77;;
20042;SDS011;10182;52.896;6.496;2022-11-23T08:55:16;16.47;;;8.53;;
20042;SDS011;10182;52.896;6.496;2022-11-23T09:00:19;18.03;;;8.77;;
20042;SDS011;10182;52.896;6.496;2022-11-23T09:05:21;12.83;;;7.00;;
20042;SDS011;10182;52.896;6.496;2022-11-23T09:10:23;18.93;;;9.07;;
20042;SDS011;10182;52.896;6.496;2022-11-23T09:15:26;15.30;;;8.27;;
20042;SDS011;10182;52.896;6.496;2022-11-23T09:20:28;13.00;;;7.23;;
20042;SDS011;10182;52.896;6.496;2022-11-23T09:25:30;10.93;;;6.67;;
20042;SDS011;10182;52.896;6.496;2022-11-23T09:30:33;16.03;;;6.80;;
20042;SDS011;10182;52.896;6.496;2022-11-23T09:35:35;15.07;;;6.87;;
20042;SDS011;10182;52.896;6.496;2022-11-23T09:40:37;16.20;;;6.97;;
20042;SDS011;10182;52.896;6.496;2022-11-23T09:45:44;14.87;;;6.17;;
20042;SDS011;10182;52.896;6.496;2022-11-23T09:50:50;20.13;;;6.83;;
20042;SDS011;10182;52.896;6.496;2022-11-23T09:55:59;16.17;;;6.00;;
20042;SDS011;10182;52.896;6.496;2022-11-23T10:01:03;14.83;;;6.03;;
20042;SDS011;10182;52.896;6.496;2022-11-23T10:06:12;23.70;;;6.73;;
20042;SDS011;10182;52.896;6.496;2022-11-23T10:17:03;13.37;;;5.03;;
20042;SDS011;10182;52.896;6.496;2022-11-23T10:22:15;13.90;;;4.87;;
20042;SDS011;10182;52.896;6.496;2022-11-23T10:27:22;15.03;;;5.53;;
20042;SDS011;10182;52.896;6.496;2022-11-23T10:32:29;14.30;;;5.40;;
20042;SDS011;10182;52.896;6.496;2022-11-23T10:37:35;12.43;;;4.90;;
20042;SDS011;10182;52.896;6.496;2022-11-23T10:42:40;14.17;;;4.67;;
20042;SDS011;10182;52.896;6.496;2022-11-23T10:47:52;10.63;;;4.33;;
20042;SDS011;10182;52.896;6.496;2022-11-23T10:52:58;18.07;;;4.60;;
20042;SDS011;10182;52.896;6.496;2022-11-23T10:58:01;14.50;;;4.90;;
20042;SDS011;10182;52.896;6.496;2022-11-23T11:03:05;13.23;;;4.60;;
20042;SDS011;10182;52.896;6.496;2022-11-23T11:08:24;13.93;;;4.37;;
20042;SDS011;10182;52.896;6.496;2022-11-23T11:13:30;14.77;;;4.80;;
20042;SDS011;10182;52.896;6.496;2022-11-23T11:18:35;16.27;;;4.17;;
20042;SDS011;10182;52.896;6.496;2022-11-23T11:23:38;13.33;;;5.03;;
20042;SDS011;10182;52.896;6.496;2022-11-23T11:28:41;12.37;;;3.60;;
20042;SDS011;10182;52.896;6.496;2022-11-23T11:33:50;10.13;;;3.77;;
20042;SDS011;10182;52.896;6.496;2022-11-23T11:38:55;10.00;;;3.70;;
20042;SDS011;10182;52.896;6.496;2022-11-23T11:44:05;13.53;;;3.50;;
20042;SDS011;10182;52.896;6.496;2022-11-23T11:49:13;9.50;;;3.37;;
20042;SDS011;10182;52.896;6.496;2022-11-23T11:54:20;10.77;;;3.40;;
20042;SDS011;10182;52.896;6.496;2022-11-23T11:59:29;16.23;;;3.87;;
20042;SDS011;10182;52.896;6.496;2022-11-23T12:04:45;13.00;;;3.20;;
20042;SDS011;10182;52.896;6.496;2022-11-23T12:09:55;11.47;;;2.70;;
20042;SDS011;10182;52.896;6.496;2022-11-23T12:15:02;8.80;;;3.00;;
20042;SDS011;10182;52.896;6.496;2022-11-23T12:20:09;9.43;;;2.80;;
20042;SDS011;10182;52.896;6.496;2022-11-23T12:25:21;7.80;;;2.70;;
20042;SDS011;10182;52.896;6.496;2022-11-23T12:30:30;14.33;;;3.13;;
20042;SDS011;10182;52.896;6.496;2022-11-23T12:35:56;11.83;;;3.37;;
20042;SDS011;10182;52.896;6.496;2022-11-23T12:41:22;9.50;;;3.17;;
20042;SDS011;10182;52.896;6.496;2022-11-23T12:46:32;13.30;;;3.07;;
20042;SDS011;10182;52.896;6.496;2022-11-23T12:51:43;8.27;;;2.50;;
20042;SDS011;10182;52.896;6.496;2022-11-23T12:56:57;12.27;;;2.50;;
20042;SDS011;10182;52.896;6.496;2022-11-23T13:02:10;11.23;;;4.00;;
20042;SDS011;10182;52.896;6.496;2022-11-23T13:13:03;6.67;;;2.50;;
20042;SDS011;10182;52.896;6.496;2022-11-23T13:18:18;5.97;;;2.93;;
20042;SDS011;10182;52.896;6.496;2022-11-23T13:23:37;10.80;;;2.63;;
20042;SDS011;10182;52.896;6.496;2022-11-23T13:28:40;7.43;;;2.90;;
20042;SDS011;10182;52.896;6.496;2022-11-23T13:33:42;9.70;;;3.23;;
20042;SDS011;10182;52.896;6.496;2022-11-23T13:38:46;7.93;;;2.33;;
20042;SDS011;10182;52.896;6.496;2022-11-23T13:43:48;6.60;;;2.43;;
20042;SDS011;10182;52.896;6.496;2022-11-23T13:48:51;9.37;;;1.87;;
20042;SDS011;10182;52.896;6.496;2022-11-23T13:53:57;5.73;;;2.00;;
20042;SDS011;10182;52.896;6.496;2022-11-23T13:59:24;11.63;;;2.93;;
20042;SDS011;10182;52.896;6.496;2022-11-23T14:04:29;11.80;;;3.37;;
20042;SDS011;10182;52.896;6.496;2022-11-23T14:09:34;11.83;;;3.00;;
20042;SDS011;10182;52.896;6.496;2022-11-23T14:14:43;8.20;;;3.27;;
20042;SDS011;10182;52.896;6.496;2022-11-23T14:19:59;11.20;;;3.23;;
20042;SDS011;10182;52.896;6.496;2022-11-23T14:25:28;8.93;;;3.23;;
20042;SDS011;10182;52.896;6.496;2022-11-23T14:30:40;10.87;;;3.00;;
20042;SDS011;10182;52.896;6.496;2022-11-23T14:35:51;4.13;;;2.23;;
20042;SDS011;10182;52.896;6.496;2022-11-23T14:41:02;7.47;;;4.13;;
20042;SDS011;10182;52.896;6.496;2022-11-23T14:46:12;15.13;;;3.10;;
20042;SDS011;10182;52.896;6.496;2022-11-23T14:51:17;51.73;;;7.30;;
20042;SDS011;10182;52.896;6.496;2022-11-23T14:56:22;20.67;;;4.00;;
20042;SDS011;10182;52.896;6.496;2022-11-23T15:01:32;7.30;;;2.73;;
20042;SDS011;10182;52.896;6.496;2022-11-23T15:06:36;7.70;;;3.40;;
20042;SDS011;10182;52.896;6.496;2022-11-23T15:11:42;8.37;;;3.10;;
20042;SDS011;10182;52.896;6.496;2022-11-23T15:16:48;8.63;;;2.33;;
20042;SDS011;10182;52.896;6.496;2022-11-23T15:21:49;7.77;;;2.30;;
20042;SDS011;10182;52.896;6.496;2022-11-23T15:26:52;6.53;;;2.90;;
20042;SDS011;10182;52.896;6.496;2022-11-23T15:32:18;9.87;;;5.37;;
20042;SDS011;10182;52.896;6.496;2022-11-23T15:37:22;8.77;;;2.50;;
20042;SDS011;10182;52.896;6.496;2022-11-23T15:42:26;10.43;;;3.17;;
20042;SDS011;10182;52.896;6.496;2022-11-23T15:47:29;9.27;;;4.33;;
20042;SDS011;10182;52.896;6.496;2022-11-23T15:52:32;12.23;;;5.10;;
20042;SDS011;10182;52.896;6.496;2022-11-23T15:57:37;11.93;;;4.10;;
20042;SDS011;10182;52.896;6.496;2022-11-23T16:02:40;7.93;;;3.17;;
20042;SDS011;10182;52.896;6.496;2022-11-23T16:07:49;11.47;;;4.60;;
20042;SDS011;10182;52.896;6.496;2022-11-23T16:12:56;8.63;;;3.60;;
20042;SDS011;10182;52.896;6.496;2022-11-23T16:17:59;8.97;;;2.80;;
20042;SDS011;10182;52.896;6.496;2022-11-23T16:23:02;5.07;;;2.60;;
20042;SDS011;10182;52.896;6.496;2022-11-23T16:28:12;12.37;;;4.30;;
20042;SDS011;10182;52.896;6.496;2022-11-23T16:33:17;8.00;;;2.73;;
20042;SDS011;10182;52.896;6.496;2022-11-23T16:38:20;7.00;;;3.60;;
20042;SDS011;10182;52.896;6.496;2022-11-23T16:43:24;6.43;;;3.33;;
20042;SDS011;10182;52.896;6.496;2022-11-23T16:48:36;11.17;;;4.27;;
20042;SDS011;10182;52.896;6.496;2022-11-23T16:53:40;5.47;;;2.47;;
20042;SDS011;10182;52.896;6.496;2022-11-23T16:58:44;4.40;;;2.30;;
20042;SDS011;10182;52.896;6.496;2022-11-23T17:03:47;8.30;;;2.83;;
20042;SDS011;10182;52.896;6.496;2022-11-23T17:15:19;6.30;;;2.57;;
20042;SDS011;10182;52.896;6.496;2022-11-23T17:20:22;6.80;;;2.93;;
20042;SDS011;10182;52.896;6.496;2022-11-23T17:25:24;6.43;;;2.60;;
20042;SDS011;10182;52.896;6.496;2022-11-23T17:30:28;6.27;;;2.80;;
20042;SDS011;10182;52.896;6.496;2022-11-23T17:35:30;7.93;;;4.20;;
20042;SDS011;10182;52.896;6.496;2022-11-23T17:40:32;6.67;;;3.93;;
20042;SDS011;10182;52.896;6.496;2022-11-23T17:45:36;10.97;;;4.50;;
20042;SDS011;10182;52.896;6.496;2022-11-23T17:50:38;11.97;;;5.33;;
20042;SDS011;10182;52.896;6.496;2022-11-23T17:55:40;11.83;;;5.53;;
20042;SDS011;10182;52.896;6.496;2022-11-23T18:00:43;8.73;;;4.70;;
20042;SDS011;10182;52.896;6.496;2022-11-23T18:05:44;11.13;;;4.80;;
20042;SDS011;10182;52.896;6.496;2022-11-23T18:10:46;8.10;;;4.63;;
20042;SDS011;10182;52.896;6.496;2022-11-23T18:15:49;6.67;;;4.47;;
20042;SDS011;10182;52.896;6.496;2022-11-23T18:20:52;8.33;;;4.23;;
20042;SDS011;10182;52.896;6.496;2022-11-23T18:25:56;11.67;;;4.47;;
20042;SDS011;10182;52.896;6.496;2022-11-23T18:31:00;7.93;;;4.73;;
20042;SDS011;10182;52.896;6.496;2022-11-23T18:36:02;10.13;;;4.63;;
20042;SDS011;10182;52.896;6.496;2022-11-23T18:41:04;10.50;;;5.07;;
20042;SDS011;10182;52.896;6.496;2022-11-23T18:46:08;6.93;;;5.77;;
20042;SDS011;10182;52.896;6.496;2022-11-23T18:51:11;10.17;;;5.57;;
20042;SDS011;10182;52.896;6.496;2022-11-23T18:56:13;8.43;;;5.40;;
20042;SDS011;10182;52.896;6.496;2022-11-23T19:01:16;8.93;;;6.03;;
20042;SDS011;10182;52.896;6.496;2022-11-23T19:06:20;9.73;;;6.57;;
20042;SDS011;10182;52.896;6.496;2022-11-23T19:11:25;11.03;;;6.30;;
20042;SDS011;10182;52.896;6.496;2022-11-23T19:16:29;11.77;;;7.50;;
20042;SDS011;10182;52.896;6.496;2022-11-23T19:21:32;9.87;;;6.80;;
20042;SDS011;10182;52.896;6.496;2022-11-23T19:26:35;11.37;;;7.63;;
20042;SDS011;10182;52.896;6.496;2022-11-23T19:31:38;20.70;;;13.80;;
20042;SDS011;10182;52.896;6.496;2022-11-23T19:36:40;12.20;;;7.73;;
20042;SDS011;10182;52.896;6.496;2022-11-23T19:41:42;14.37;;;9.13;;
20042;SDS011;10182;52.896;6.496;2022-11-23T19:46:45;14.33;;;11.00;;
20042;SDS011;10182;52.896;6.496;2022-11-23T19:51:46;10.67;;;9.30;;
20042;SDS011;10182;52.896;6.496;2022-11-23T19:56:51;14.53;;;10.23;;
20042;SDS011;10182;52.896;6.496;2022-11-23T20:01:54;16.17;;;11.30;;
20042;SDS011;10182;52.896;6.496;2022-11-23T20:06:55;18.33;;;12.10;;
20042;SDS011;10182;52.896;6.496;2022-11-23T20:11:57;15.73;;;12.83;;
20042;SDS011;10182;52.896;6.496;2022-11-23T20:17:00;15.70;;;13.37;;
20042;SDS011;10182;52.896;6.496;2022-11-23T20:22:02;18.57;;;12.83;;
20042;SDS011;10182;52.896;6.496;2022-11-23T20:27:04;17.03;;;14.70;;
20042;SDS011;10182;52.896;6.496;2022-11-23T20:32:07;15.50;;;13.50;;
20042;SDS011;10182;52.896;6.496;2022-11-23T20:37:11;17.20;;;15.30;;
20042;SDS011;10182;52.896;6.496;2022-11-23T20:42:12;18.43;;;14.50;;
20042;SDS011;10182;52.896;6.496;2022-11-23T20:47:16;15.80;;;13.50;;
20042;SDS011;10182;52.896;6.496;2022-11-23T20:52:17;16.50;;;13.53;;
20042;SDS011;10182;52.896;6.496;2022-11-23T20:57:19;18.87;;;13.80;;
20042;SDS011;10182;52.896;6.496;2022-11-23T21:02:22;18.13;;;13.93;;
20042;SDS011;10182;52.896;6.496;2022-11-23T21:07:24;17.33;;;13.80;;
20042;SDS011;10182;52.896;6.496;2022-11-23T21:12:25;15.10;;;12.13;;
20042;SDS011;10182;52.896;6.496;2022-11-23T21:17:54;16.20;;;12.90;;
20042;SDS011;10182;52.896;6.496;2022-11-23T21:22:56;17.50;;;14.57;;
20042;SDS011;10182;52.896;6.496;2022-11-23T21:27:58;15.70;;;13.63;;
20042;SDS011;10182;52.896;6.496;2022-11-23T21:33:03;18.47;;;15.17;;
20042;SDS011;10182;52.896;6.496;2022-11-23T21:38:05;20.27;;;15.20;;
20042;SDS011;10182;52.896;6.496;2022-11-23T21:43:07;19.97;;;15.60;;
20042;SDS011;10182;52.896;6.496;2022-11-23T21:48:10;25.27;;;17.23;;
20042;SDS011;10182;52.896;6.496;2022-11-23T21:53:12;23.20;;;15.83;;
20042;SDS011;10182;52.896;6.496;2022-11-23T21:58:14;23.63;;;16.73;;
20042;SDS011;10182;52.896;6.496;2022-11-23T22:03:17;21.87;;;16.07;;
20042;SDS011;10182;52.896;6.496;2022-11-23T22:08:19;18.77;;;15.33;;
20042;SDS011;10182;52.896;6.496;2022-11-23T22:13:21;18.13;;;15.53;;
20042;SDS011;10182;52.896;6.496;2022-11-23T22:18:24;19.53;;;14.53;;
20042;SDS011;10182;52.896;6.496;2022-11-23T22:23:26;27.03;;;16.33;;
20042;SDS011;10182;52.896;6.496;2022-11-23T22:28:29;20.87;;;15.33;;
20042;SDS011;10182;52.896;6.496;2022-11-23T22:33:33;23.00;;;15.60;;
20042;SDS011;10182;52.896;6.496;2022-11-23T22:38:35;24.57;;;15.77;;
20042;SDS011;10182;52.896;6.496;2022-11-23T22:43:36;21.07;;;13.60;;
20042;SDS011;10182;52.896;6.496;2022-11-23T22:48:40;21.60;;;14.63;;
20042;SDS011;10182;52.896;6.496;2022-11-23T22:53:43;22.20;;;14.30;;
20042;SDS011;10182;52.896;6.496;2022-11-23T22:58:46;20.77;;;14.07;;
20042;SDS011;10182;52.896;6.496;2022-11-23T23:03:52;21.73;;;14.47;;
20042;SDS011;10182;52.896;6.496;2022-11-23T23:08:55;15.47;;;12.17;;
20042;SDS011;10182;52.896;6.496;2022-11-23T23:13:58;19.67;;;13.00;;
20042;SDS011;10182;52.896;6.496;2022-11-23T23:19:01;18.70;;;13.37;;
20042;SDS011;10182;52.896;6.496;2022-11-23T23:24:03;20.87;;;13.20;;
20042;SDS011;10182;52.896;6.496;2022-11-23T23:29:05;19.80;;;13.27;;
20042;SDS011;10182;52.896;6.496;2022-11-23T23:34:08;23.10;;;13.90;;
20042;SDS011;10182;52.896;6.496;2022-11-23T23:39:10;18.37;;;13.97;;
20042;SDS011;10182;52.896;6.496;2022-11-23T23:44:12;20.80;;;12.80;;
20042;SDS011;10182;52.896;6.496;2022-11-23T23:49:15;24.63;;;12.73;;
20042;SDS011;10182;52.896;6.496;2022-11-23T23:54:17;23.83;;;12.87;;
20042;SDS011;10182;52.896;6.496;2022-11-23T23:59:19;25.97;;;13.13;;
